createdAt,value
2022-10-17T00:02:12.105Z,4.55
2022-10-17T00:04:38.690Z,5.00
2022-10-17T00:07:05.212Z,5.32
2022-10-17T00:09:31.714Z,5.13
2022-10-17T00:11:58.289Z,4.60
2022-10-17T00:14:24.788Z,4.70
2022-10-17T00:16:51.391Z,5.30
2022-10-17T00:19:17.899Z,5.32
2022-10-17T00:21:44.381Z,5.65
2022-10-17T00:24:10.917Z,5.38
2022-10-17T00:26:37.441Z,4.63
2022-10-17T00:29:04.121Z,5.28
2022-10-17T00:31:30.755Z,5.75
2022-10-17T00:33:57.320Z,6.80
2022-10-17T00:36:25.986Z,5.85
2022-10-17T00:38:56.450Z,5.82
2022-10-17T00:41:26.597Z,5.72
2022-10-17T00:44:13.192Z,5.40
2022-10-17T00:46:39.750Z,5.97
2022-10-17T00:49:10.459Z,6.03
2022-10-17T00:51:38.801Z,6.30
2022-10-17T00:54:06.345Z,6.03
2022-10-17T00:56:33.016Z,6.15
2022-10-17T00:58:59.833Z,6.45
2022-10-17T01:01:26.420Z,5.68
2022-10-17T01:03:52.999Z,6.38
2022-10-17T01:06:19.600Z,6.82
2022-10-17T01:08:46.378Z,6.53
2022-10-17T01:11:33.312Z,6.40
2022-10-17T01:14:25.153Z,6.32
2022-10-17T01:16:55.722Z,6.55
2022-10-17T01:19:22.174Z,6.68
2022-10-17T01:22:03.850Z,6.85
2022-10-17T01:25:02.947Z,8.50
2022-10-17T01:27:42.158Z,7.35
2022-10-17T01:30:44.270Z,7.40
2022-10-17T01:33:14.498Z,7.43
2022-10-17T01:35:51.254Z,7.10
2022-10-17T01:38:21.984Z,8.30
2022-10-17T01:40:52.171Z,10.30
2022-10-17T01:43:39.091Z,8.45
2022-10-17T01:46:39.046Z,7.97
2022-10-17T01:49:08.019Z,7.68
2022-10-17T01:51:51.522Z,8.98
2022-10-17T01:54:27.964Z,9.60
2022-10-17T01:57:00.268Z,9.57
2022-10-17T01:59:30.391Z,9.60
2022-10-17T02:01:57.877Z,9.23
2022-10-17T02:04:25.342Z,9.70
2022-10-17T02:06:52.021Z,10.38
2022-10-17T02:09:23.826Z,9.98
2022-10-17T02:11:57.138Z,10.13
2022-10-17T02:14:48.914Z,9.95
2022-10-17T02:17:26.693Z,10.05
2022-10-17T02:20:01.370Z,10.82
2022-10-17T02:22:46.345Z,10.75
2022-10-17T02:25:31.730Z,10.32
2022-10-17T02:28:06.343Z,10.10
2022-10-17T02:30:46.881Z,10.82
2022-10-17T02:33:23.556Z,10.43
2022-10-17T02:35:53.954Z,10.88
2022-10-17T02:38:21.653Z,10.98
2022-10-17T02:40:50.614Z,11.55
2022-10-17T02:43:17.506Z,10.10
2022-10-17T02:45:44.073Z,10.82
2022-10-17T02:48:19.913Z,12.02
2022-10-17T02:51:02.242Z,11.68
2022-10-17T02:53:35.315Z,11.40
2022-10-17T02:56:06.303Z,10.18
2022-10-17T02:58:34.073Z,12.27
2022-10-17T03:01:01.823Z,11.40
2022-10-17T03:03:30.652Z,12.02
2022-10-17T03:06:01.158Z,12.68
2022-10-17T03:08:27.901Z,12.02
2022-10-17T03:10:55.683Z,13.25
2022-10-17T03:13:22.724Z,12.90
2022-10-17T03:15:49.835Z,13.05
2022-10-17T03:18:16.421Z,13.80
2022-10-17T03:20:44.061Z,12.30
2022-10-17T03:23:10.616Z,13.45
2022-10-17T03:25:37.234Z,13.18
2022-10-17T03:28:05.435Z,13.68
2022-10-17T03:30:32.969Z,13.85
2022-10-17T03:33:00.314Z,13.32
2022-10-17T03:35:27.270Z,13.48
2022-10-17T03:37:55.606Z,13.57
2022-10-17T03:40:23.349Z,15.43
2022-10-17T03:42:49.948Z,13.63
2022-10-17T03:45:16.459Z,13.15
2022-10-17T03:47:43.886Z,13.68
2022-10-17T03:50:10.453Z,13.95
2022-10-17T03:52:38.636Z,13.40
2022-10-17T03:55:05.578Z,12.80
2022-10-17T03:57:34.834Z,14.00
2022-10-17T04:00:02.034Z,13.85
2022-10-17T04:02:29.711Z,15.18
2022-10-17T04:04:57.508Z,15.05
2022-10-17T04:07:24.067Z,15.07
2022-10-17T04:09:50.630Z,15.27
2022-10-17T04:12:19.563Z,16.20
2022-10-17T04:14:46.533Z,15.10
2022-10-17T04:17:14.357Z,15.38
2022-10-17T04:19:40.878Z,16.08
2022-10-17T04:22:08.433Z,14.90
2022-10-17T04:24:37.169Z,16.00
2022-10-17T04:27:09.670Z,16.92
2022-10-17T04:29:40.364Z,15.63
2022-10-17T04:32:20.383Z,16.25
2022-10-17T04:34:50.854Z,15.55
2022-10-17T04:37:19.361Z,17.15
2022-10-17T04:39:47.622Z,16.23
2022-10-17T04:42:14.220Z,17.90
2022-10-17T04:44:41.194Z,18.13
2022-10-17T04:47:08.525Z,16.67
2022-10-17T04:49:35.146Z,17.75
2022-10-17T04:52:09.826Z,17.50
2022-10-17T04:54:42.346Z,17.63
2022-10-17T04:57:10.331Z,17.15
2022-10-17T04:59:38.563Z,18.10
2022-10-17T05:02:25.354Z,18.13
2022-10-17T05:04:52.169Z,18.50
2022-10-17T05:07:20.239Z,19.33
2022-10-17T05:09:46.732Z,20.02
2022-10-17T05:12:13.250Z,16.08
2022-10-17T05:14:43.345Z,18.83
2022-10-17T05:17:09.912Z,17.65
2022-10-17T05:19:37.232Z,19.40
2022-10-17T05:22:04.694Z,20.73
2022-10-17T05:24:31.290Z,20.27
2022-10-17T05:26:58.048Z,21.05
2022-10-17T05:29:24.645Z,19.73
2022-10-17T05:31:57.816Z,19.30
2022-10-17T05:34:25.057Z,19.90
2022-10-17T05:36:51.817Z,18.15
2022-10-17T05:39:21.344Z,20.60
2022-10-17T05:41:51.216Z,17.77
2022-10-17T05:44:18.075Z,19.88
2022-10-17T05:46:50.364Z,19.08
2022-10-17T05:49:32.177Z,19.33
2022-10-17T05:52:00.578Z,20.33
2022-10-17T05:54:27.965Z,20.10
2022-10-17T05:56:55.911Z,20.73
2022-10-17T05:59:26.841Z,22.23
2022-10-17T06:02:09.927Z,17.98
2022-10-17T06:04:37.880Z,17.67
2022-10-17T06:07:05.083Z,17.13
2022-10-17T06:09:33.024Z,19.67
2022-10-17T06:11:59.537Z,18.00
2022-10-17T06:14:26.159Z,16.80
2022-10-17T06:16:56.965Z,17.23
2022-10-17T06:19:23.476Z,17.08
2022-10-17T06:21:50.045Z,17.13
2022-10-17T06:24:20.850Z,17.67
2022-10-17T06:26:49.771Z,15.98
2022-10-17T06:29:16.901Z,17.73
2022-10-17T06:31:47.504Z,18.08
2022-10-17T06:34:14.317Z,16.85
2022-10-17T06:36:41.046Z,19.67
2022-10-17T06:39:08.733Z,17.85
2022-10-17T06:41:44.492Z,18.20
2022-10-17T06:44:11.901Z,16.45
2022-10-17T06:46:57.657Z,17.38
2022-10-17T06:49:24.466Z,16.80
2022-10-17T06:51:57.121Z,16.50
2022-10-17T06:54:33.253Z,17.17
2022-10-17T06:57:18.481Z,17.52
2022-10-17T06:59:59.692Z,16.95
2022-10-17T07:02:33.979Z,16.88
2022-10-17T07:05:01.672Z,16.27
2022-10-17T07:07:31.638Z,16.58
2022-10-17T07:09:58.908Z,15.63
2022-10-17T07:12:25.630Z,15.98
2022-10-17T07:14:52.214Z,16.48
2022-10-17T07:17:19.396Z,17.05
2022-10-17T07:19:46.774Z,16.25
2022-10-17T07:22:13.637Z,16.30
2022-10-17T07:24:43.624Z,15.48
2022-10-17T07:27:22.686Z,16.17
2022-10-17T07:29:49.230Z,16.52
2022-10-17T07:32:27.602Z,16.02
2022-10-17T07:34:54.154Z,14.57
2022-10-17T07:37:20.673Z,14.05
2022-10-17T07:39:52.928Z,13.80
2022-10-17T07:42:19.537Z,14.23
2022-10-17T07:44:47.426Z,13.10
2022-10-17T07:47:14.082Z,13.20
2022-10-17T07:49:42.556Z,13.75
2022-10-17T07:52:13.159Z,12.85
2022-10-17T07:54:39.747Z,13.50
2022-10-17T07:57:06.786Z,13.13
2022-10-17T07:59:34.251Z,12.82
2022-10-17T08:02:00.893Z,11.88
2022-10-17T08:04:27.646Z,11.52
2022-10-17T08:07:05.425Z,11.10
2022-10-17T08:09:38.385Z,11.93
2022-10-17T08:12:05.125Z,11.40
2022-10-17T08:14:31.669Z,11.52
2022-10-17T08:16:58.218Z,11.13
2022-10-17T08:19:24.789Z,11.20
2022-10-17T08:21:52.312Z,11.77
2022-10-17T08:24:18.797Z,11.23
2022-10-17T08:26:48.280Z,11.32
2022-10-17T08:29:16.673Z,11.02
2022-10-17T08:31:47.424Z,11.88
2022-10-17T08:34:15.822Z,11.07
2022-10-17T08:36:42.354Z,11.38
2022-10-17T08:39:08.933Z,11.07
2022-10-17T08:42:26.005Z,11.10
2022-10-17T08:45:10.826Z,11.70
2022-10-17T08:47:41.377Z,10.38
2022-10-17T08:50:31.970Z,11.63
2022-10-17T08:53:05.132Z,11.30
2022-10-17T08:55:45.357Z,10.85
2022-10-17T08:58:14.582Z,10.35
2022-10-17T09:00:48.317Z,10.50
2022-10-17T09:03:43.599Z,10.07
2022-10-17T09:06:19.470Z,9.70
2022-10-17T09:09:03.046Z,10.02
2022-10-17T09:11:50.928Z,10.02
2022-10-17T09:14:40.798Z,10.40
2022-10-17T09:17:26.060Z,9.40
2022-10-17T09:20:01.982Z,9.65
2022-10-17T09:22:33.369Z,9.48
2022-10-17T09:25:03.799Z,10.43
2022-10-17T09:27:44.312Z,9.15
2022-10-17T09:30:47.488Z,8.80
2022-10-17T09:33:34.582Z,8.10
2022-10-17T09:36:05.554Z,8.27
2022-10-17T09:38:41.578Z,8.25
2022-10-17T09:41:42.788Z,8.40
2022-10-17T09:44:18.429Z,8.38
2022-10-17T09:47:14.178Z,9.98
2022-10-17T09:49:43.449Z,9.63
2022-10-17T09:52:20.054Z,9.98
2022-10-17T09:54:49.741Z,11.20
2022-10-17T09:57:17.943Z,9.95
2022-10-17T09:59:59.745Z,9.68
2022-10-17T10:02:28.455Z,10.35
2022-10-17T10:05:06.695Z,11.55
2022-10-17T10:07:37.444Z,11.15
2022-10-17T10:10:23.236Z,10.75
2022-10-17T10:13:03.866Z,10.20
2022-10-17T10:15:35.519Z,11.05
2022-10-17T10:18:02.365Z,11.65
2022-10-17T10:20:37.031Z,12.35
2022-10-17T10:23:10.979Z,11.77
2022-10-17T10:25:37.522Z,11.30
2022-10-17T10:28:10.648Z,12.05
2022-10-17T10:30:39.784Z,12.25
2022-10-17T10:33:10.547Z,13.23
2022-10-17T10:35:37.705Z,13.00
2022-10-17T10:38:10.164Z,13.77
2022-10-17T10:40:44.793Z,13.40
2022-10-17T10:43:21.878Z,14.57
2022-10-17T10:45:49.223Z,14.27
2022-10-17T10:48:21.764Z,14.38
2022-10-17T10:50:59.869Z,15.85
2022-10-17T10:53:34.906Z,15.55
2022-10-17T10:56:09.030Z,17.65
2022-10-17T10:59:02.479Z,15.05
2022-10-17T11:01:47.813Z,16.95
2022-10-17T11:04:26.736Z,15.52
2022-10-17T11:06:59.159Z,16.80
2022-10-17T11:09:46.517Z,15.73
2022-10-17T11:12:19.979Z,16.10
2022-10-17T11:14:55.109Z,15.68
2022-10-17T11:17:38.560Z,17.90
2022-10-17T11:20:23.757Z,17.52
2022-10-17T11:22:57.614Z,18.85
2022-10-17T11:25:37.090Z,18.10
2022-10-17T11:28:09.017Z,17.25
2022-10-17T11:33:22.227Z,17.45
2022-10-17T11:35:50.449Z,17.75
2022-10-17T11:38:27.238Z,18.20
2022-10-17T11:40:56.558Z,15.95
2022-10-17T11:43:33.778Z,16.77
2022-10-17T11:46:05.870Z,18.42
2022-10-17T11:48:39.469Z,15.68
2022-10-17T11:54:28.211Z,14.95
2022-10-17T11:57:27.285Z,15.18
2022-10-17T12:00:04.144Z,15.75
2022-10-17T12:02:57.962Z,15.43
2022-10-17T12:05:34.414Z,15.27
2022-10-17T12:08:14.113Z,14.18
2022-10-17T12:11:14.957Z,13.65
2022-10-17T12:13:46.457Z,13.40
2022-10-17T12:16:19.376Z,14.82
2022-10-17T12:18:47.595Z,13.43
2022-10-17T12:21:14.185Z,14.60
2022-10-17T12:23:41.172Z,13.00
2022-10-17T12:26:09.518Z,13.50
2022-10-17T12:28:47.137Z,13.77
2022-10-17T12:31:17.366Z,13.75
2022-10-17T12:33:52.643Z,13.07
2022-10-17T12:36:21.102Z,11.65
2022-10-17T12:39:02.473Z,11.30
2022-10-17T12:41:38.063Z,9.95
2022-10-17T12:44:13.971Z,9.43
2022-10-17T12:46:42.043Z,9.48
2022-10-17T12:49:40.616Z,9.27
2022-10-17T12:52:19.089Z,11.50
2022-10-17T12:55:00.295Z,9.77
2022-10-17T12:57:51.825Z,9.27
2022-10-17T13:00:37.840Z,9.57
2022-10-17T13:03:17.388Z,8.88
2022-10-17T13:05:49.757Z,9.68
2022-10-17T13:08:22.213Z,8.63
2022-10-17T13:10:52.399Z,8.52
2022-10-17T13:13:22.439Z,8.60
2022-10-17T13:15:51.043Z,9.50
2022-10-17T13:18:24.197Z,8.20
2022-10-17T13:20:58.722Z,8.90
2022-10-17T13:23:26.725Z,8.95
2022-10-17T13:26:22.510Z,8.82
2022-10-17T13:29:11.977Z,9.48
2022-10-17T13:31:40.597Z,9.32
2022-10-17T13:34:16.573Z,9.30
2022-10-17T13:36:48.537Z,8.80
2022-10-17T13:39:23.184Z,9.90
2022-10-17T13:41:58.872Z,9.00
2022-10-17T13:44:27.511Z,10.43
2022-10-17T13:46:54.453Z,8.80
2022-10-17T13:49:32.747Z,5.97
2022-10-17T13:52:00.840Z,4.63
2022-10-17T13:54:41.608Z,3.30
2022-10-17T13:57:21.491Z,3.88
2022-10-17T13:59:51.432Z,3.00
2022-10-17T14:02:21.735Z,3.35
2022-10-17T14:05:16.775Z,3.80
2022-10-17T14:08:16.902Z,3.70
2022-10-17T14:10:44.490Z,3.22
2022-10-17T14:13:28.165Z,3.95
2022-10-17T14:15:56.758Z,2.80
2022-10-17T14:18:34.808Z,3.50
2022-10-17T14:23:51.158Z,2.90
2022-10-17T14:26:22.968Z,2.60
2022-10-17T14:29:04.411Z,3.30
2022-10-17T14:31:37.142Z,3.00
2022-10-17T14:34:04.997Z,2.38
2022-10-17T14:36:34.519Z,2.00
2022-10-17T14:39:01.837Z,2.25
2022-10-17T14:41:47.834Z,1.98
2022-10-17T14:44:21.597Z,2.13
2022-10-17T14:46:54.057Z,2.05
2022-10-17T14:49:32.861Z,2.30
2022-10-17T14:52:18.535Z,2.70
2022-10-17T14:54:47.333Z,3.30
2022-10-17T14:57:26.004Z,3.13
2022-10-17T14:59:55.760Z,2.80
2022-10-17T15:02:24.348Z,2.65
2022-10-17T15:04:50.968Z,2.70
2022-10-17T15:07:18.037Z,2.85
2022-10-17T15:09:45.470Z,2.40
2022-10-17T15:12:17.644Z,2.90
2022-10-17T15:14:45.041Z,2.95
2022-10-17T15:17:18.549Z,2.85
2022-10-17T15:19:45.081Z,2.70
2022-10-17T15:22:11.593Z,3.88
2022-10-17T15:24:38.121Z,3.72
2022-10-17T15:27:10.876Z,3.95
2022-10-17T15:29:37.482Z,3.38
2022-10-17T15:32:04.006Z,3.50
2022-10-17T15:34:30.514Z,3.70
2022-10-17T15:36:57.258Z,3.65
2022-10-17T15:39:23.791Z,3.03
2022-10-17T15:41:50.399Z,3.17
2022-10-17T15:44:16.999Z,3.83
2022-10-17T15:46:43.624Z,3.90
2022-10-17T15:49:13.134Z,3.88
2022-10-17T15:51:40.326Z,3.50
2022-10-17T15:54:06.934Z,3.35
2022-10-17T15:56:37.355Z,3.53
2022-10-17T15:59:16.129Z,3.97
2022-10-17T16:01:42.714Z,4.05
2022-10-17T16:04:14.701Z,4.18
2022-10-17T16:06:42.556Z,4.90
2022-10-17T16:09:09.424Z,4.28
2022-10-17T16:11:39.592Z,5.40
2022-10-17T16:14:10.065Z,3.95
2022-10-17T16:16:36.546Z,4.35
2022-10-17T16:19:03.560Z,5.03
2022-10-17T16:21:33.291Z,5.43
2022-10-17T16:24:00.513Z,5.40
2022-10-17T16:26:27.629Z,5.10
2022-10-17T16:28:55.321Z,4.97
2022-10-17T16:31:23.316Z,5.35
2022-10-17T16:33:51.466Z,5.90
2022-10-17T16:36:17.996Z,5.38
2022-10-17T16:38:44.694Z,5.95
2022-10-17T16:41:21.328Z,5.82
2022-10-17T16:43:49.430Z,6.28
2022-10-17T16:46:16.261Z,6.32
2022-10-17T16:48:44.390Z,6.28
2022-10-17T16:51:12.026Z,6.32
2022-10-17T16:53:43.842Z,7.40
2022-10-17T16:56:12.654Z,6.35
2022-10-17T16:58:40.366Z,7.50
2022-10-17T17:01:10.167Z,8.48
2022-10-17T17:03:38.150Z,8.60
2022-10-17T17:06:06.642Z,8.85
2022-10-17T17:08:34.265Z,7.75
2022-10-17T17:11:00.832Z,7.82
2022-10-17T17:13:28.256Z,8.23
2022-10-17T17:16:06.349Z,9.75
2022-10-17T17:18:33.022Z,8.35
2022-10-17T17:21:00.981Z,7.97
2022-10-17T17:23:27.838Z,7.28
2022-10-17T17:26:09.618Z,7.05
2022-10-17T17:28:36.680Z,8.38
2022-10-17T17:31:06.812Z,8.52
2022-10-17T17:33:33.737Z,8.15
2022-10-17T17:36:01.642Z,7.13
2022-10-17T17:38:29.690Z,9.13
2022-10-17T17:40:56.430Z,7.43
2022-10-17T17:43:23.445Z,8.60
2022-10-17T17:45:50.045Z,7.10
2022-10-17T17:48:16.815Z,9.40
2022-10-17T17:50:44.186Z,9.52
2022-10-17T17:53:12.807Z,9.10
2022-10-17T17:55:40.123Z,9.43
2022-10-17T17:58:08.152Z,10.15
2022-10-17T18:00:35.763Z,9.98
2022-10-17T18:03:02.397Z,9.90
2022-10-17T18:05:29.020Z,9.98
2022-10-17T18:07:55.514Z,12.45
2022-10-17T18:10:22.314Z,11.15
2022-10-17T18:12:48.841Z,11.73
2022-10-17T18:15:15.703Z,11.73
2022-10-17T18:17:42.356Z,12.70
2022-10-17T18:20:09.369Z,11.02
2022-10-17T18:22:36.014Z,14.68
2022-10-17T18:25:03.038Z,13.57
2022-10-17T18:27:29.541Z,14.60
2022-10-17T18:29:56.284Z,14.30
2022-10-17T18:32:22.908Z,15.48
2022-10-17T18:34:49.420Z,16.38
2022-10-17T18:37:15.973Z,16.52
2022-10-17T18:39:42.458Z,18.33
2022-10-17T18:42:08.942Z,20.10
2022-10-17T18:44:35.451Z,19.25
2022-10-17T18:47:04.142Z,19.58
2022-10-17T18:49:31.226Z,18.70
2022-10-17T18:51:59.431Z,21.05
2022-10-17T18:54:25.918Z,23.40
2022-10-17T18:56:54.221Z,21.70
2022-10-17T18:59:21.080Z,22.25
2022-10-17T19:01:48.057Z,21.95
2022-10-17T19:04:14.719Z,23.45
2022-10-17T19:06:41.828Z,24.02
2022-10-17T19:09:10.933Z,24.23
2022-10-17T19:11:38.405Z,22.77
2022-10-17T19:14:12.590Z,23.38
2022-10-17T19:16:47.718Z,23.10
2022-10-17T19:19:25.082Z,23.75
2022-10-17T19:21:52.003Z,23.92
2022-10-17T19:24:24.920Z,24.33
2022-10-17T19:26:53.661Z,25.08
2022-10-17T19:29:21.584Z,29.10
2022-10-17T19:31:48.494Z,28.83
2022-10-17T19:34:15.886Z,24.08
2022-10-17T19:36:42.661Z,23.08
2022-10-17T19:39:15.805Z,24.15
2022-10-17T19:41:43.569Z,26.52
2022-10-17T19:44:10.505Z,27.50
2022-10-17T19:46:37.084Z,25.10
2022-10-17T19:49:04.163Z,22.27
2022-10-17T19:51:31.062Z,30.73
2022-10-17T19:54:01.976Z,22.95
2022-10-17T19:56:30.906Z,23.23
2022-10-17T19:58:58.448Z,19.92
2022-10-17T20:01:27.812Z,21.80
2022-10-17T20:03:54.873Z,21.45
2022-10-17T20:06:22.082Z,22.85
2022-10-17T20:08:48.877Z,25.10
2022-10-17T20:11:21.337Z,27.25
2022-10-17T20:13:48.339Z,26.35
2022-10-17T20:16:26.221Z,23.10
2022-10-17T20:18:57.005Z,31.23
2022-10-17T20:21:27.229Z,25.08
2022-10-17T20:23:54.346Z,24.70
2022-10-17T20:26:36.891Z,23.02
2022-10-17T20:29:08.649Z,19.30
2022-10-17T20:31:35.460Z,22.38
2022-10-17T20:34:01.998Z,18.77
2022-10-17T20:36:28.675Z,22.90
2022-10-17T20:38:56.769Z,20.38
2022-10-17T20:41:23.675Z,19.75
2022-10-17T20:43:51.647Z,18.77
2022-10-17T20:46:35.201Z,29.25
2022-10-17T20:49:03.345Z,29.65
2022-10-17T20:51:29.885Z,25.55
2022-10-17T20:56:31.196Z,20.50
2022-10-17T20:59:00.551Z,22.42
2022-10-17T21:01:28.262Z,20.83
2022-10-17T21:03:55.140Z,22.38
2022-10-17T21:06:22.993Z,27.30
2022-10-17T21:08:49.790Z,21.27
2022-10-17T21:11:21.543Z,27.33
2022-10-17T21:13:53.345Z,23.27
2022-10-17T21:16:20.165Z,26.02
2022-10-17T21:18:46.665Z,25.30
2022-10-17T21:21:20.412Z,30.23
2022-10-17T21:26:14.250Z,22.55
2022-10-17T21:28:41.303Z,19.95
2022-10-17T21:31:10.145Z,33.00
2022-10-17T21:33:37.013Z,31.48
2022-10-17T21:36:04.077Z,31.15
2022-10-17T21:38:30.686Z,30.38
2022-10-17T21:40:57.213Z,29.55
2022-10-17T21:43:23.736Z,30.33
2022-10-17T21:45:50.217Z,36.33
2022-10-17T21:48:16.705Z,31.45
2022-10-17T21:50:43.287Z,32.05
2022-10-17T21:53:09.790Z,29.23
2022-10-17T21:55:37.500Z,28.33
2022-10-17T21:58:04.536Z,27.65
2022-10-17T22:00:31.078Z,32.67
2022-10-17T22:02:57.665Z,32.58
2022-10-17T22:05:24.225Z,29.13
2022-10-17T22:07:50.723Z,30.70
2022-10-17T22:10:17.241Z,37.88
2022-10-17T22:12:43.726Z,35.13
2022-10-17T22:15:10.310Z,36.70
2022-10-17T22:17:36.825Z,34.05
2022-10-17T22:20:03.480Z,28.67
2022-10-17T22:22:30.471Z,26.67
2022-10-17T22:24:56.991Z,29.33
2022-10-17T22:27:23.472Z,27.17
2022-10-17T22:29:49.980Z,32.80
2022-10-17T22:32:20.059Z,30.88
2022-10-17T22:34:48.978Z,25.70
2022-10-17T22:37:15.501Z,30.42
2022-10-17T22:39:42.202Z,31.10
2022-10-17T22:42:08.832Z,30.70
2022-10-17T22:44:35.520Z,28.40
2022-10-17T22:47:02.004Z,29.13
2022-10-17T22:49:28.505Z,24.30
2022-10-17T22:51:55.000Z,22.13
2022-10-17T22:54:21.492Z,26.15
2022-10-17T22:56:47.987Z,25.83
2022-10-17T22:59:15.270Z,29.85
2022-10-17T23:01:41.835Z,25.27
2022-10-17T23:04:08.393Z,25.40
2022-10-17T23:06:34.933Z,28.67
2022-10-17T23:09:01.530Z,28.85
2022-10-17T23:11:28.068Z,24.77
2022-10-17T23:13:54.553Z,25.90
2022-10-17T23:16:21.069Z,21.90
2022-10-17T23:18:47.556Z,26.77
2022-10-17T23:21:14.126Z,21.38
2022-10-17T23:23:40.660Z,21.83
2022-10-17T23:26:10.195Z,22.05
2022-10-17T23:28:37.046Z,17.40
2022-10-17T23:31:18.829Z,17.92
2022-10-17T23:33:46.652Z,15.38
2022-10-17T23:36:14.911Z,14.95
2022-10-17T23:38:42.599Z,15.85
2022-10-17T23:41:09.426Z,16.88
2022-10-17T23:43:36.378Z,14.13
2022-10-17T23:46:03.593Z,17.00
2022-10-17T23:48:30.241Z,18.00
2022-10-17T23:50:56.890Z,15.93
2022-10-17T23:53:24.180Z,16.85
2022-10-17T23:55:50.838Z,17.08
2022-10-17T23:58:17.437Z,17.08
